Argos, Indiana
Current Conditions -  °F | °C
As of 1:35 AM on Sunday 26 Oct 2014 (Local Time) from KRCR Reporting Station
Clear Clear  
Wind Chill: 54°   Ceiling: Unl
Heat Index: 54°   Visibility: 10mi
Dew Point: 32°   Wind: 6mph
Humidity: 44%   Direction: 290°WNW
Pressure: 29.95"   Gusts: NA
Location:  41.23°N, 86.24°W
Report Text: KRCR 260535Z AUTO 29005KT 10SM CLR 12/00 A2995 RMK AO2
Loading
Personal Weather Stations






























Interactive Weather Map
Tropical Storm Tracking
New forecast layout! Learn more

10-Day Weather Forecast

Advertisements
Track Severe Weather on mobile